sensor_id;sensor_type;location;lat;lon;timestamp;P1;durP1;ratioP1;P2;durP2;ratioP2
17482;SDS011;8858;52.308;20.994;2023-03-03T00:01:57;61.00;;;37.13;;
17482;SDS011;8858;52.308;20.994;2023-03-03T00:04:27;58.57;;;33.27;;
17482;SDS011;8858;52.308;20.994;2023-03-03T00:06:55;62.47;;;36.87;;
17482;SDS011;8858;52.308;20.994;2023-03-03T00:09:25;56.77;;;34.03;;
17482;SDS011;8858;52.308;20.994;2023-03-03T00:11:56;61.60;;;35.73;;
17482;SDS011;8858;52.308;20.994;2023-03-03T00:14:28;60.27;;;35.10;;
17482;SDS011;8858;52.308;20.994;2023-03-03T00:16:59;58.53;;;35.93;;
17482;SDS011;8858;52.308;20.994;2023-03-03T00:19:35;57.63;;;34.57;;
17482;SDS011;8858;52.308;20.994;2023-03-03T00:22:13;57.63;;;33.67;;
17482;SDS011;8858;52.308;20.994;2023-03-03T00:24:50;54.83;;;33.40;;
17482;SDS011;8858;52.308;20.994;2023-03-03T00:27:21;57.93;;;34.63;;
17482;SDS011;8858;52.308;20.994;2023-03-03T00:29:56;54.57;;;33.57;;
17482;SDS011;8858;52.308;20.994;2023-03-03T00:32:26;53.77;;;31.63;;
17482;SDS011;8858;52.308;20.994;2023-03-03T00:35:00;54.63;;;32.63;;
17482;SDS011;8858;52.308;20.994;2023-03-03T00:37:46;52.83;;;31.67;;
17482;SDS011;8858;52.308;20.994;2023-03-03T00:40:18;53.63;;;31.70;;
17482;SDS011;8858;52.308;20.994;2023-03-03T00:42:51;52.80;;;32.80;;
17482;SDS011;8858;52.308;20.994;2023-03-03T00:45:26;53.77;;;32.17;;
17482;SDS011;8858;52.308;20.994;2023-03-03T00:47:58;51.47;;;32.33;;
17482;SDS011;8858;52.308;20.994;2023-03-03T00:50:43;45.83;;;30.60;;
17482;SDS011;8858;52.308;20.994;2023-03-03T00:53:12;54.60;;;32.33;;
17482;SDS011;8858;52.308;20.994;2023-03-03T00:55:46;52.17;;;32.07;;
17482;SDS011;8858;52.308;20.994;2023-03-03T00:58:17;52.60;;;31.87;;
17482;SDS011;8858;52.308;20.994;2023-03-03T01:00:48;52.30;;;31.50;;
17482;SDS011;8858;52.308;20.994;2023-03-03T01:03:23;55.50;;;32.77;;
17482;SDS011;8858;52.308;20.994;2023-03-03T01:05:53;47.17;;;30.83;;
17482;SDS011;8858;52.308;20.994;2023-03-03T01:08:25;56.47;;;33.23;;
17482;SDS011;8858;52.308;20.994;2023-03-03T01:10:55;57.67;;;34.10;;
17482;SDS011;8858;52.308;20.994;2023-03-03T01:13:33;50.73;;;31.73;;
17482;SDS011;8858;52.308;20.994;2023-03-03T01:16:04;57.03;;;32.10;;
17482;SDS011;8858;52.308;20.994;2023-03-03T01:18:57;50.77;;;31.33;;
17482;SDS011;8858;52.308;20.994;2023-03-03T01:21:26;54.93;;;32.97;;
17482;SDS011;8858;52.308;20.994;2023-03-03T01:23:54;54.87;;;32.93;;
17482;SDS011;8858;52.308;20.994;2023-03-03T01:26:25;49.87;;;31.07;;
17482;SDS011;8858;52.308;20.994;2023-03-03T01:28:55;55.73;;;33.20;;
17482;SDS011;8858;52.308;20.994;2023-03-03T01:31:24;52.50;;;32.13;;
17482;SDS011;8858;52.308;20.994;2023-03-03T01:33:53;56.67;;;32.43;;
17482;SDS011;8858;52.308;20.994;2023-03-03T01:36:22;54.73;;;33.00;;
17482;SDS011;8858;52.308;20.994;2023-03-03T01:38:52;54.23;;;32.80;;
17482;SDS011;8858;52.308;20.994;2023-03-03T01:41:27;54.43;;;31.63;;
17482;SDS011;8858;52.308;20.994;2023-03-03T01:44:02;51.67;;;32.47;;
17482;SDS011;8858;52.308;20.994;2023-03-03T01:46:40;54.00;;;32.87;;
17482;SDS011;8858;52.308;20.994;2023-03-03T01:49:16;55.50;;;33.10;;
17482;SDS011;8858;52.308;20.994;2023-03-03T01:51:51;53.30;;;33.30;;
17482;SDS011;8858;52.308;20.994;2023-03-03T01:54:23;54.17;;;31.80;;
17482;SDS011;8858;52.308;20.994;2023-03-03T01:56:56;51.60;;;33.43;;
17482;SDS011;8858;52.308;20.994;2023-03-03T01:59:30;56.30;;;34.43;;
17482;SDS011;8858;52.308;20.994;2023-03-03T02:02:01;55.17;;;33.50;;
17482;SDS011;8858;52.308;20.994;2023-03-03T02:04:30;55.13;;;34.67;;
17482;SDS011;8858;52.308;20.994;2023-03-03T02:07:04;57.87;;;34.27;;
17482;SDS011;8858;52.308;20.994;2023-03-03T02:09:40;55.53;;;34.30;;
17482;SDS011;8858;52.308;20.994;2023-03-03T02:12:17;60.50;;;33.07;;
17482;SDS011;8858;52.308;20.994;2023-03-03T02:14:48;56.90;;;33.67;;
17482;SDS011;8858;52.308;20.994;2023-03-03T02:17:20;55.50;;;33.60;;
17482;SDS011;8858;52.308;20.994;2023-03-03T02:19:51;52.37;;;33.27;;
17482;SDS011;8858;52.308;20.994;2023-03-03T02:22:31;55.40;;;34.27;;
17482;SDS011;8858;52.308;20.994;2023-03-03T02:25:06;54.23;;;34.13;;
17482;SDS011;8858;52.308;20.994;2023-03-03T02:27:39;56.47;;;34.13;;
17482;SDS011;8858;52.308;20.994;2023-03-03T02:30:10;56.73;;;33.73;;
17482;SDS011;8858;52.308;20.994;2023-03-03T02:32:44;58.77;;;35.33;;
17482;SDS011;8858;52.308;20.994;2023-03-03T02:35:29;56.53;;;33.30;;
17482;SDS011;8858;52.308;20.994;2023-03-03T02:38:10;56.87;;;32.73;;
17482;SDS011;8858;52.308;20.994;2023-03-03T02:40:56;57.73;;;33.57;;
17482;SDS011;8858;52.308;20.994;2023-03-03T02:43:33;59.37;;;35.93;;
17482;SDS011;8858;52.308;20.994;2023-03-03T02:46:08;55.73;;;34.00;;
17482;SDS011;8858;52.308;20.994;2023-03-03T02:48:36;65.77;;;36.37;;
17482;SDS011;8858;52.308;20.994;2023-03-03T02:51:05;59.37;;;36.60;;
17482;SDS011;8858;52.308;20.994;2023-03-03T02:53:33;58.93;;;34.50;;
17482;SDS011;8858;52.308;20.994;2023-03-03T02:56:02;59.67;;;35.60;;
17482;SDS011;8858;52.308;20.994;2023-03-03T02:58:30;58.50;;;35.53;;
17482;SDS011;8858;52.308;20.994;2023-03-03T03:01:01;62.27;;;36.77;;
17482;SDS011;8858;52.308;20.994;2023-03-03T03:03:31;65.30;;;35.50;;
17482;SDS011;8858;52.308;20.994;2023-03-03T03:06:03;61.80;;;37.23;;
17482;SDS011;8858;52.308;20.994;2023-03-03T03:08:33;65.03;;;38.13;;
17482;SDS011;8858;52.308;20.994;2023-03-03T03:11:02;63.20;;;37.07;;
17482;SDS011;8858;52.308;20.994;2023-03-03T03:13:33;68.37;;;37.83;;
17482;SDS011;8858;52.308;20.994;2023-03-03T03:16:02;69.23;;;38.37;;
17482;SDS011;8858;52.308;20.994;2023-03-03T03:18:32;63.40;;;37.93;;
17482;SDS011;8858;52.308;20.994;2023-03-03T03:21:05;64.80;;;39.20;;
17482;SDS011;8858;52.308;20.994;2023-03-03T03:23:34;66.50;;;40.23;;
17482;SDS011;8858;52.308;20.994;2023-03-03T03:26:04;70.40;;;40.67;;
17482;SDS011;8858;52.308;20.994;2023-03-03T03:28:36;68.93;;;39.77;;
17482;SDS011;8858;52.308;20.994;2023-03-03T03:31:05;70.60;;;39.50;;
17482;SDS011;8858;52.308;20.994;2023-03-03T03:33:36;72.80;;;40.17;;
17482;SDS011;8858;52.308;20.994;2023-03-03T03:36:06;72.83;;;41.47;;
17482;SDS011;8858;52.308;20.994;2023-03-03T03:38:35;73.90;;;39.27;;
17482;SDS011;8858;52.308;20.994;2023-03-03T03:41:06;71.23;;;40.53;;
17482;SDS011;8858;52.308;20.994;2023-03-03T03:43:36;72.13;;;41.23;;
17482;SDS011;8858;52.308;20.994;2023-03-03T03:46:06;71.87;;;41.30;;
17482;SDS011;8858;52.308;20.994;2023-03-03T03:48:35;71.60;;;41.43;;
17482;SDS011;8858;52.308;20.994;2023-03-03T03:51:05;68.53;;;39.67;;
17482;SDS011;8858;52.308;20.994;2023-03-03T03:53:33;61.87;;;38.47;;
17482;SDS011;8858;52.308;20.994;2023-03-03T03:56:03;62.63;;;37.97;;
17482;SDS011;8858;52.308;20.994;2023-03-03T03:58:32;65.33;;;37.57;;
17482;SDS011;8858;52.308;20.994;2023-03-03T04:01:06;62.83;;;36.20;;
17482;SDS011;8858;52.308;20.994;2023-03-03T04:03:44;62.90;;;36.93;;
17482;SDS011;8858;52.308;20.994;2023-03-03T04:06:17;69.63;;;39.47;;
17482;SDS011;8858;52.308;20.994;2023-03-03T04:08:47;64.20;;;37.20;;
17482;SDS011;8858;52.308;20.994;2023-03-03T04:11:18;70.20;;;39.57;;
17482;SDS011;8858;52.308;20.994;2023-03-03T04:13:52;63.80;;;35.87;;
17482;SDS011;8858;52.308;20.994;2023-03-03T04:16:22;67.73;;;36.30;;
17482;SDS011;8858;52.308;20.994;2023-03-03T04:18:50;66.50;;;37.57;;
17482;SDS011;8858;52.308;20.994;2023-03-03T04:21:20;72.30;;;40.90;;
17482;SDS011;8858;52.308;20.994;2023-03-03T04:23:51;72.90;;;40.30;;
17482;SDS011;8858;52.308;20.994;2023-03-03T04:26:25;72.53;;;40.30;;
17482;SDS011;8858;52.308;20.994;2023-03-03T04:28:54;71.63;;;40.83;;
17482;SDS011;8858;52.308;20.994;2023-03-03T04:31:23;65.90;;;38.80;;
17482;SDS011;8858;52.308;20.994;2023-03-03T04:33:53;74.20;;;41.57;;
17482;SDS011;8858;52.308;20.994;2023-03-03T04:36:22;70.97;;;40.60;;
17482;SDS011;8858;52.308;20.994;2023-03-03T04:38:52;77.17;;;39.67;;
17482;SDS011;8858;52.308;20.994;2023-03-03T04:41:21;76.97;;;40.93;;
17482;SDS011;8858;52.308;20.994;2023-03-03T04:43:49;67.40;;;38.83;;
17482;SDS011;8858;52.308;20.994;2023-03-03T04:46:19;72.47;;;39.97;;
17482;SDS011;8858;52.308;20.994;2023-03-03T04:48:48;68.17;;;40.17;;
17482;SDS011;8858;52.308;20.994;2023-03-03T04:51:21;67.23;;;39.27;;
17482;SDS011;8858;52.308;20.994;2023-03-03T04:53:50;66.40;;;39.67;;
17482;SDS011;8858;52.308;20.994;2023-03-03T04:56:19;63.90;;;38.43;;
17482;SDS011;8858;52.308;20.994;2023-03-03T04:58:48;72.23;;;39.13;;
17482;SDS011;8858;52.308;20.994;2023-03-03T05:01:16;65.67;;;38.03;;
17482;SDS011;8858;52.308;20.994;2023-03-03T05:03:51;70.73;;;38.50;;
17482;SDS011;8858;52.308;20.994;2023-03-03T05:06:19;65.60;;;36.10;;
17482;SDS011;8858;52.308;20.994;2023-03-03T05:08:51;72.50;;;40.30;;
17482;SDS011;8858;52.308;20.994;2023-03-03T05:11:19;70.60;;;39.73;;
17482;SDS011;8858;52.308;20.994;2023-03-03T05:13:48;72.10;;;40.57;;
17482;SDS011;8858;52.308;20.994;2023-03-03T05:16:16;67.73;;;38.73;;
17482;SDS011;8858;52.308;20.994;2023-03-03T05:18:45;69.83;;;40.80;;
17482;SDS011;8858;52.308;20.994;2023-03-03T05:21:16;75.73;;;40.53;;
17482;SDS011;8858;52.308;20.994;2023-03-03T05:23:45;78.13;;;43.50;;
17482;SDS011;8858;52.308;20.994;2023-03-03T05:26:13;75.53;;;41.20;;
17482;SDS011;8858;52.308;20.994;2023-03-03T05:28:44;77.00;;;42.83;;
17482;SDS011;8858;52.308;20.994;2023-03-03T05:31:13;78.63;;;43.90;;
17482;SDS011;8858;52.308;20.994;2023-03-03T05:33:41;74.90;;;44.90;;
17482;SDS011;8858;52.308;20.994;2023-03-03T05:36:11;80.57;;;44.47;;
17482;SDS011;8858;52.308;20.994;2023-03-03T05:38:40;73.43;;;40.17;;
17482;SDS011;8858;52.308;20.994;2023-03-03T05:41:08;85.67;;;43.17;;
17482;SDS011;8858;52.308;20.994;2023-03-03T05:43:37;82.47;;;44.83;;
17482;SDS011;8858;52.308;20.994;2023-03-03T05:46:06;80.83;;;44.23;;
17482;SDS011;8858;52.308;20.994;2023-03-03T05:48:35;84.10;;;45.53;;
17482;SDS011;8858;52.308;20.994;2023-03-03T05:51:03;84.57;;;44.23;;
17482;SDS011;8858;52.308;20.994;2023-03-03T05:53:35;84.10;;;47.43;;
17482;SDS011;8858;52.308;20.994;2023-03-03T05:56:05;85.77;;;48.17;;
17482;SDS011;8858;52.308;20.994;2023-03-03T05:58:35;90.17;;;45.30;;
17482;SDS011;8858;52.308;20.994;2023-03-03T06:01:03;91.97;;;46.43;;
17482;SDS011;8858;52.308;20.994;2023-03-03T06:03:31;93.70;;;47.37;;
17482;SDS011;8858;52.308;20.994;2023-03-03T06:06:03;94.53;;;49.00;;
17482;SDS011;8858;52.308;20.994;2023-03-03T06:08:31;97.83;;;50.83;;
17482;SDS011;8858;52.308;20.994;2023-03-03T06:11:00;92.10;;;45.67;;
17482;SDS011;8858;52.308;20.994;2023-03-03T06:13:30;101.37;;;51.23;;
17482;SDS011;8858;52.308;20.994;2023-03-03T06:15:58;100.37;;;50.50;;
17482;SDS011;8858;52.308;20.994;2023-03-03T06:18:26;99.80;;;46.37;;
17482;SDS011;8858;52.308;20.994;2023-03-03T06:20:54;105.30;;;51.40;;
17482;SDS011;8858;52.308;20.994;2023-03-03T06:23:26;104.83;;;51.07;;
17482;SDS011;8858;52.308;20.994;2023-03-03T06:25:56;115.80;;;54.47;;
17482;SDS011;8858;52.308;20.994;2023-03-03T06:28:25;104.60;;;51.30;;
17482;SDS011;8858;52.308;20.994;2023-03-03T06:30:54;113.93;;;53.13;;
17482;SDS011;8858;52.308;20.994;2023-03-03T06:33:24;111.20;;;54.33;;
17482;SDS011;8858;52.308;20.994;2023-03-03T06:35:52;111.23;;;51.60;;
17482;SDS011;8858;52.308;20.994;2023-03-03T06:38:25;108.73;;;51.83;;
17482;SDS011;8858;52.308;20.994;2023-03-03T06:40:53;116.27;;;53.80;;
17482;SDS011;8858;52.308;20.994;2023-03-03T06:43:21;108.73;;;49.83;;
17482;SDS011;8858;52.308;20.994;2023-03-03T06:45:49;111.50;;;53.10;;
17482;SDS011;8858;52.308;20.994;2023-03-03T06:48:19;108.27;;;51.27;;
17482;SDS011;8858;52.308;20.994;2023-03-03T06:50:47;107.47;;;49.97;;
17482;SDS011;8858;52.308;20.994;2023-03-03T06:53:16;96.43;;;46.13;;
17482;SDS011;8858;52.308;20.994;2023-03-03T06:55:46;93.57;;;42.70;;
17482;SDS011;8858;52.308;20.994;2023-03-03T06:58:15;96.77;;;45.07;;
17482;SDS011;8858;52.308;20.994;2023-03-03T07:00:48;102.13;;;47.57;;
17482;SDS011;8858;52.308;20.994;2023-03-03T07:03:22;90.80;;;41.37;;
17482;SDS011;8858;52.308;20.994;2023-03-03T07:05:52;87.87;;;42.77;;
17482;SDS011;8858;52.308;20.994;2023-03-03T07:08:24;90.77;;;42.40;;
17482;SDS011;8858;52.308;20.994;2023-03-03T07:10:59;86.50;;;42.20;;
17482;SDS011;8858;52.308;20.994;2023-03-03T07:13:37;84.40;;;41.83;;
17482;SDS011;8858;52.308;20.994;2023-03-03T07:16:11;94.33;;;43.83;;
17482;SDS011;8858;52.308;20.994;2023-03-03T07:18:47;88.77;;;40.17;;
17482;SDS011;8858;52.308;20.994;2023-03-03T07:21:19;80.83;;;40.37;;
17482;SDS011;8858;52.308;20.994;2023-03-03T07:23:53;76.33;;;37.07;;
17482;SDS011;8858;52.308;20.994;2023-03-03T07:26:24;69.00;;;33.93;;
17482;SDS011;8858;52.308;20.994;2023-03-03T07:29:01;71.00;;;32.53;;
17482;SDS011;8858;52.308;20.994;2023-03-03T07:31:41;73.63;;;35.90;;
17482;SDS011;8858;52.308;20.994;2023-03-03T07:34:15;74.53;;;37.10;;
17482;SDS011;8858;52.308;20.994;2023-03-03T07:36:48;69.27;;;30.53;;
17482;SDS011;8858;52.308;20.994;2023-03-03T07:39:23;73.20;;;34.90;;
17482;SDS011;8858;52.308;20.994;2023-03-03T07:41:58;56.97;;;29.00;;
17482;SDS011;8858;52.308;20.994;2023-03-03T07:44:50;71.80;;;32.40;;
17482;SDS011;8858;52.308;20.994;2023-03-03T07:47:22;71.37;;;35.13;;
17482;SDS011;8858;52.308;20.994;2023-03-03T07:49:54;85.63;;;37.97;;
17482;SDS011;8858;52.308;20.994;2023-03-03T07:52:25;78.50;;;36.90;;
17482;SDS011;8858;52.308;20.994;2023-03-03T07:54:59;82.23;;;36.07;;
17482;SDS011;8858;52.308;20.994;2023-03-03T07:57:33;82.93;;;38.20;;
17482;SDS011;8858;52.308;20.994;2023-03-03T08:00:39;81.63;;;35.03;;
17482;SDS011;8858;52.308;20.994;2023-03-03T08:03:23;71.27;;;30.23;;
17482;SDS011;8858;52.308;20.994;2023-03-03T08:05:53;71.23;;;33.43;;
17482;SDS011;8858;52.308;20.994;2023-03-03T08:08:26;68.20;;;30.70;;
17482;SDS011;8858;52.308;20.994;2023-03-03T08:10:59;70.00;;;35.90;;
17482;SDS011;8858;52.308;20.994;2023-03-03T08:13:28;69.53;;;32.77;;
17482;SDS011;8858;52.308;20.994;2023-03-03T08:16:17;73.80;;;33.57;;
17482;SDS011;8858;52.308;20.994;2023-03-03T08:19:01;66.40;;;32.77;;
17482;SDS011;8858;52.308;20.994;2023-03-03T08:21:33;68.87;;;33.10;;
17482;SDS011;8858;52.308;20.994;2023-03-03T08:24:03;76.90;;;33.47;;
17482;SDS011;8858;52.308;20.994;2023-03-03T08:26:32;68.27;;;32.27;;
17482;SDS011;8858;52.308;20.994;2023-03-03T08:29:03;63.47;;;30.27;;
17482;SDS011;8858;52.308;20.994;2023-03-03T08:31:31;67.43;;;35.57;;
17482;SDS011;8858;52.308;20.994;2023-03-03T08:34:07;60.50;;;32.60;;
17482;SDS011;8858;52.308;20.994;2023-03-03T08:36:37;60.33;;;31.13;;
17482;SDS011;8858;52.308;20.994;2023-03-03T08:39:05;59.50;;;31.37;;
17482;SDS011;8858;52.308;20.994;2023-03-03T08:41:36;58.40;;;30.10;;
17482;SDS011;8858;52.308;20.994;2023-03-03T08:44:09;53.13;;;28.73;;
17482;SDS011;8858;52.308;20.994;2023-03-03T08:46:40;55.23;;;28.87;;
17482;SDS011;8858;52.308;20.994;2023-03-03T08:49:09;56.50;;;30.00;;
17482;SDS011;8858;52.308;20.994;2023-03-03T08:51:41;56.30;;;27.87;;
17482;SDS011;8858;52.308;20.994;2023-03-03T08:54:09;51.63;;;26.63;;
17482;SDS011;8858;52.308;20.994;2023-03-03T08:56:38;52.87;;;26.10;;
17482;SDS011;8858;52.308;20.994;2023-03-03T08:59:08;52.23;;;28.00;;
17482;SDS011;8858;52.308;20.994;2023-03-03T09:01:36;52.27;;;28.43;;
17482;SDS011;8858;52.308;20.994;2023-03-03T09:04:05;46.43;;;27.50;;
17482;SDS011;8858;52.308;20.994;2023-03-03T09:06:35;51.00;;;27.33;;
17482;SDS011;8858;52.308;20.994;2023-03-03T09:09:06;48.73;;;25.53;;
17482;SDS011;8858;52.308;20.994;2023-03-03T09:11:34;49.00;;;27.67;;
17482;SDS011;8858;52.308;20.994;2023-03-03T09:14:05;48.77;;;26.97;;
17482;SDS011;8858;52.308;20.994;2023-03-03T09:16:38;45.70;;;26.63;;
17482;SDS011;8858;52.308;20.994;2023-03-03T09:19:15;42.43;;;25.83;;
17482;SDS011;8858;52.308;20.994;2023-03-03T09:21:53;49.27;;;26.47;;
17482;SDS011;8858;52.308;20.994;2023-03-03T09:24:26;41.83;;;24.50;;
17482;SDS011;8858;52.308;20.994;2023-03-03T09:26:59;42.67;;;23.87;;
17482;SDS011;8858;52.308;20.994;2023-03-03T09:29:29;47.20;;;26.50;;
17482;SDS011;8858;52.308;20.994;2023-03-03T09:32:07;49.53;;;26.53;;
17482;SDS011;8858;52.308;20.994;2023-03-03T09:34:47;44.87;;;25.40;;
17482;SDS011;8858;52.308;20.994;2023-03-03T09:37:20;46.47;;;25.70;;
17482;SDS011;8858;52.308;20.994;2023-03-03T09:39:51;42.80;;;25.53;;
17482;SDS011;8858;52.308;20.994;2023-03-03T09:42:30;43.67;;;22.43;;
17482;SDS011;8858;52.308;20.994;2023-03-03T09:48:24;41.50;;;22.80;;
17482;SDS011;8858;52.308;20.994;2023-03-03T09:51:11;41.90;;;23.87;;
17482;SDS011;8858;52.308;20.994;2023-03-03T09:53:58;38.63;;;22.63;;
17482;SDS011;8858;52.308;20.994;2023-03-03T09:56:40;40.63;;;22.93;;
17482;SDS011;8858;52.308;20.994;2023-03-03T09:59:19;40.73;;;21.80;;
17482;SDS011;8858;52.308;20.994;2023-03-03T10:01:58;41.00;;;23.73;;
17482;SDS011;8858;52.308;20.994;2023-03-03T10:04:38;40.30;;;22.17;;
17482;SDS011;8858;52.308;20.994;2023-03-03T10:07:24;40.33;;;22.80;;
17482;SDS011;8858;52.308;20.994;2023-03-03T10:10:05;41.17;;;24.73;;
17482;SDS011;8858;52.308;20.994;2023-03-03T10:12:46;42.77;;;23.47;;
17482;SDS011;8858;52.308;20.994;2023-03-03T10:15:26;46.27;;;24.37;;
17482;SDS011;8858;52.308;20.994;2023-03-03T10:18:06;39.17;;;22.40;;
17482;SDS011;8858;52.308;20.994;2023-03-03T10:20:51;39.73;;;20.90;;
17482;SDS011;8858;52.308;20.994;2023-03-03T10:23:36;40.63;;;24.67;;
17482;SDS011;8858;52.308;20.994;2023-03-03T10:26:20;40.90;;;22.53;;
17482;SDS011;8858;52.308;20.994;2023-03-03T10:32:05;36.60;;;23.20;;
17482;SDS011;8858;52.308;20.994;2023-03-03T10:35:00;40.53;;;24.40;;
17482;SDS011;8858;52.308;20.994;2023-03-03T10:37:41;43.27;;;24.70;;
17482;SDS011;8858;52.308;20.994;2023-03-03T10:40:21;41.27;;;24.30;;
17482;SDS011;8858;52.308;20.994;2023-03-03T10:46:13;40.57;;;24.37;;
17482;SDS011;8858;52.308;20.994;2023-03-03T10:51:59;46.10;;;25.97;;
17482;SDS011;8858;52.308;20.994;2023-03-03T10:54:45;42.80;;;25.60;;
17482;SDS011;8858;52.308;20.994;2023-03-03T10:57:23;44.80;;;26.60;;
17482;SDS011;8858;52.308;20.994;2023-03-03T10:59:59;47.97;;;27.07;;
17482;SDS011;8858;52.308;20.994;2023-03-03T11:02:37;45.47;;;26.60;;
17482;SDS011;8858;52.308;20.994;2023-03-03T11:05:24;46.77;;;28.67;;
17482;SDS011;8858;52.308;20.994;2023-03-03T11:08:00;49.50;;;27.70;;
17482;SDS011;8858;52.308;20.994;2023-03-03T11:10:40;47.23;;;28.17;;
17482;SDS011;8858;52.308;20.994;2023-03-03T11:13:20;51.23;;;30.43;;
17482;SDS011;8858;52.308;20.994;2023-03-03T11:15:58;55.17;;;30.73;;
17482;SDS011;8858;52.308;20.994;2023-03-03T11:18:54;56.63;;;31.87;;
17482;SDS011;8858;52.308;20.994;2023-03-03T11:21:33;53.97;;;30.37;;
17482;SDS011;8858;52.308;20.994;2023-03-03T11:27:04;60.40;;;32.17;;
17482;SDS011;8858;52.308;20.994;2023-03-03T11:30:08;56.47;;;30.67;;
17482;SDS011;8858;52.308;20.994;2023-03-03T11:32:47;54.00;;;31.77;;
17482;SDS011;8858;52.308;20.994;2023-03-03T11:35:28;57.17;;;31.30;;
17482;SDS011;8858;52.308;20.994;2023-03-03T11:38:09;57.20;;;32.23;;
17482;SDS011;8858;52.308;20.994;2023-03-03T11:40:48;60.10;;;34.03;;
17482;SDS011;8858;52.308;20.994;2023-03-03T11:43:26;58.67;;;34.00;;
17482;SDS011;8858;52.308;20.994;2023-03-03T11:46:04;57.93;;;32.43;;
17482;SDS011;8858;52.308;20.994;2023-03-03T11:48:42;56.27;;;33.03;;
17482;SDS011;8858;52.308;20.994;2023-03-03T11:51:21;58.30;;;32.13;;
17482;SDS011;8858;52.308;20.994;2023-03-03T11:53:57;61.20;;;33.60;;
17482;SDS011;8858;52.308;20.994;2023-03-03T11:56:32;57.67;;;31.33;;
17482;SDS011;8858;52.308;20.994;2023-03-03T11:59:11;65.80;;;35.80;;
17482;SDS011;8858;52.308;20.994;2023-03-03T12:01:52;59.10;;;32.43;;
17482;SDS011;8858;52.308;20.994;2023-03-03T12:04:25;58.43;;;32.30;;
17482;SDS011;8858;52.308;20.994;2023-03-03T12:07:04;59.83;;;31.93;;
17482;SDS011;8858;52.308;20.994;2023-03-03T12:09:52;60.77;;;35.70;;
17482;SDS011;8858;52.308;20.994;2023-03-03T12:12:30;53.40;;;28.47;;
17482;SDS011;8858;52.308;20.994;2023-03-03T12:15:05;67.43;;;39.33;;
17482;SDS011;8858;52.308;20.994;2023-03-03T12:17:52;67.60;;;38.03;;
17482;SDS011;8858;52.308;20.994;2023-03-03T12:20:35;66.87;;;38.53;;
17482;SDS011;8858;52.308;20.994;2023-03-03T12:23:17;74.07;;;35.47;;
17482;SDS011;8858;52.308;20.994;2023-03-03T12:26:03;68.53;;;33.73;;
17482;SDS011;8858;52.308;20.994;2023-03-03T12:28:36;77.97;;;37.63;;
17482;SDS011;8858;52.308;20.994;2023-03-03T12:31:14;68.80;;;36.60;;
17482;SDS011;8858;52.308;20.994;2023-03-03T12:33:51;57.90;;;27.07;;
17482;SDS011;8858;52.308;20.994;2023-03-03T12:39:28;79.40;;;41.20;;
17482;SDS011;8858;52.308;20.994;2023-03-03T12:42:06;79.57;;;40.23;;
17482;SDS011;8858;52.308;20.994;2023-03-03T12:44:39;75.87;;;40.57;;
17482;SDS011;8858;52.308;20.994;2023-03-03T12:47:15;75.50;;;39.73;;
17482;SDS011;8858;52.308;20.994;2023-03-03T12:49:53;79.17;;;40.50;;
17482;SDS011;8858;52.308;20.994;2023-03-03T12:52:36;71.07;;;36.20;;
17482;SDS011;8858;52.308;20.994;2023-03-03T12:55:20;74.17;;;34.00;;
17482;SDS011;8858;52.308;20.994;2023-03-03T12:57:59;79.17;;;37.13;;
17482;SDS011;8858;52.308;20.994;2023-03-03T13:00:42;80.97;;;38.03;;
17482;SDS011;8858;52.308;20.994;2023-03-03T13:03:21;94.47;;;42.77;;
17482;SDS011;8858;52.308;20.994;2023-03-03T13:06:22;95.13;;;43.03;;
17482;SDS011;8858;52.308;20.994;2023-03-03T13:09:01;75.40;;;34.83;;
17482;SDS011;8858;52.308;20.994;2023-03-03T13:11:47;89.90;;;40.53;;
17482;SDS011;8858;52.308;20.994;2023-03-03T13:14:38;69.97;;;32.93;;
17482;SDS011;8858;52.308;20.994;2023-03-03T13:17:16;80.13;;;39.03;;
17482;SDS011;8858;52.308;20.994;2023-03-03T13:19:51;83.43;;;38.77;;
17482;SDS011;8858;52.308;20.994;2023-03-03T13:22:38;82.63;;;39.33;;
17482;SDS011;8858;52.308;20.994;2023-03-03T13:25:20;77.77;;;37.70;;
17482;SDS011;8858;52.308;20.994;2023-03-03T13:28:04;84.47;;;39.90;;
17482;SDS011;8858;52.308;20.994;2023-03-03T13:30:41;70.57;;;35.97;;
17482;SDS011;8858;52.308;20.994;2023-03-03T13:33:16;65.80;;;34.97;;
17482;SDS011;8858;52.308;20.994;2023-03-03T13:35:53;64.17;;;32.73;;
17482;SDS011;8858;52.308;20.994;2023-03-03T13:38:24;72.97;;;37.87;;
17482;SDS011;8858;52.308;20.994;2023-03-03T13:40:59;66.80;;;34.27;;
17482;SDS011;8858;52.308;20.994;2023-03-03T13:43:37;72.57;;;37.90;;
17482;SDS011;8858;52.308;20.994;2023-03-03T13:46:12;63.90;;;33.43;;
17482;SDS011;8858;52.308;20.994;2023-03-03T13:48:51;71.50;;;36.33;;
17482;SDS011;8858;52.308;20.994;2023-03-03T13:51:35;65.47;;;33.70;;
17482;SDS011;8858;52.308;20.994;2023-03-03T13:54:20;62.43;;;32.73;;
17482;SDS011;8858;52.308;20.994;2023-03-03T13:57:06;61.57;;;32.37;;
17482;SDS011;8858;52.308;20.994;2023-03-03T13:59:47;60.50;;;31.97;;
17482;SDS011;8858;52.308;20.994;2023-03-03T14:05:15;57.57;;;30.93;;
17482;SDS011;8858;52.308;20.994;2023-03-03T14:07:54;61.37;;;30.93;;
17482;SDS011;8858;52.308;20.994;2023-03-03T14:10:27;61.30;;;33.73;;
17482;SDS011;8858;52.308;20.994;2023-03-03T14:13:02;56.20;;;30.93;;
17482;SDS011;8858;52.308;20.994;2023-03-03T14:15:34;60.13;;;31.80;;
17482;SDS011;8858;52.308;20.994;2023-03-03T14:18:16;56.10;;;32.73;;
17482;SDS011;8858;52.308;20.994;2023-03-03T14:20:51;58.10;;;29.57;;
17482;SDS011;8858;52.308;20.994;2023-03-03T14:23:24;67.20;;;36.67;;
17482;SDS011;8858;52.308;20.994;2023-03-03T14:25:59;55.93;;;31.90;;
17482;SDS011;8858;52.308;20.994;2023-03-03T14:28:37;55.63;;;28.63;;
17482;SDS011;8858;52.308;20.994;2023-03-03T14:31:19;52.47;;;27.87;;
17482;SDS011;8858;52.308;20.994;2023-03-03T14:33:56;58.00;;;29.37;;
17482;SDS011;8858;52.308;20.994;2023-03-03T14:36:29;55.43;;;28.43;;
17482;SDS011;8858;52.308;20.994;2023-03-03T14:38:59;60.00;;;30.77;;
17482;SDS011;8858;52.308;20.994;2023-03-03T14:41:34;51.77;;;30.53;;
17482;SDS011;8858;52.308;20.994;2023-03-03T14:44:23;60.90;;;32.67;;
17482;SDS011;8858;52.308;20.994;2023-03-03T14:47:04;58.87;;;30.50;;
17482;SDS011;8858;52.308;20.994;2023-03-03T14:49:47;50.97;;;29.03;;
17482;SDS011;8858;52.308;20.994;2023-03-03T14:52:20;49.77;;;28.30;;
17482;SDS011;8858;52.308;20.994;2023-03-03T14:54:51;46.83;;;27.07;;
17482;SDS011;8858;52.308;20.994;2023-03-03T14:57:21;38.50;;;21.03;;
17482;SDS011;8858;52.308;20.994;2023-03-03T15:00:14;40.53;;;24.47;;
17482;SDS011;8858;52.308;20.994;2023-03-03T15:03:02;43.67;;;26.10;;
17482;SDS011;8858;52.308;20.994;2023-03-03T15:05:47;43.93;;;23.57;;
17482;SDS011;8858;52.308;20.994;2023-03-03T15:08:30;40.43;;;24.13;;
17482;SDS011;8858;52.308;20.994;2023-03-03T15:11:13;39.40;;;21.80;;
17482;SDS011;8858;52.308;20.994;2023-03-03T15:13:47;35.50;;;21.83;;
17482;SDS011;8858;52.308;20.994;2023-03-03T15:16:16;34.73;;;21.60;;
17482;SDS011;8858;52.308;20.994;2023-03-03T15:18:59;36.43;;;21.73;;
17482;SDS011;8858;52.308;20.994;2023-03-03T15:21:54;40.13;;;22.00;;
17482;SDS011;8858;52.308;20.994;2023-03-03T15:24:30;34.90;;;21.73;;
17482;SDS011;8858;52.308;20.994;2023-03-03T15:27:07;35.60;;;21.33;;